Terminal Aerodrome Forecast
Issued by NWS

Home | Current Version | Previous Version | Text Only | Print | Product List | Glossary On
Versions: 1 2 3 4 5 6 7 8 9 10 11 12 13 14 15 16
000
FTUS41 KCAR 232323
TAFFVE
TAF
KFVE 232323Z 2400/2424 17010KT P6SM SCT250
     FM240700 17005KT 3SM BR OVC020
     FM240900 17005KT 1SM -DZ BR OVC003
     FM241200 17007KT 6SM BR OVC002
     FM241500 17009KT P6SM OVC007
     FM241700 17010KT P6SM OVC025=

USA.gov is the U.S. government's official web portal to all federal, state and local government web resources and services.